Terminal Aerodrome Forecast
Issued by NWS Wilmington, OH

Current Version | Previous Version | Graphics & Text | Print | Product List | Glossary On
Versions: 1 2 3 4 5 6 7 8 9 10 11 12 13 14 15 16 17 18 19 20 21 22 23 24 25 26
000
FTUS41 KILN 230141 AAA
TAFDAY
TAF AMD
KDAY 230141Z 2302/2324 11009KT P6SM OVC009
     FM230400 11007KT 4SM BR OVC008
     FM231000 13007KT 2SM SHRA BR OVC006
     FM231300 17008KT 2SM SHRA OVC006
     FM231600 23012KT P6SM VCSH OVC008
     FM232200 27009KT P6SM OVC015=

USA.gov is the U.S. government's official web portal to all federal, state and local government web resources and services.